Time;durP1;ratioP1;P1;durP2;ratioP2;P2;SDS_P1;SDS_P2;PMS_P1;PMS_P2;Temp;Humidity;BMP_temperature;BMP_pressure;BME280_temperature;BME280_humidity;BME280_pressure;Samples;Min_cycle;Max_cycle;Signal;HPM_P1;HPM_P2
2022/06/26 00:04:52;;;;;;;;;;;;;;;18.3;59.20508;101251.1;;;;-79
2022/06/26 00:09:49;;;;;;;;;;;;;;;18.28;59.36133;101245.7;;;;-82
2022/06/26 00:14:50;;;;;;;;;;;;;;;18.24;59.27734;101244;;;;-81
2022/06/26 00:19:50;;;;;;;;;;;;;;;18.22;60.37305;101238.7;;;;-82
2022/06/26 00:24:47;;;;;;;;;;;;;;;18.19;59.89453;101237;;;;-82
2022/06/26 00:27:14;;;;;;;5.4;3.9;;;;;;;;;;;;;-82
2022/06/26 00:29:47;;;;;;;;;;;;;;;18.18;59.8916;101234;;;;-81
2022/06/26 00:34:47;;;;;;;;;;;;;;;18.18;59.94824;101229.3;;;;-83
2022/06/26 00:39:47;;;;;;;;;;;;;;;18.17;59.85645;101235.9;;;;-81
2022/06/26 00:44:47;;;;;;;;;;;;;;;18.13;60.06738;101251;;;;-83
2022/06/26 00:49:50;;;;;;;;;;;;;;;18.13;60.17871;101247.3;;;;-81
2022/06/26 00:54:47;;;;;;;;;;;;;;;18.11;61.10547;101263.8;;;;-82
2022/06/26 00:57:13;;;;;;;6.8;4.6;;;;;;;;;;;;;-82
2022/06/26 00:59:48;;;;;;;;;;;;;;;18.1;60.96777;101263.7;;;;-81
2022/06/26 01:04:47;;;;;;;;;;;;;;;18.1;61.12793;101268.8;;;;-83
2022/06/26 01:09:49;;;;;;;;;;;;;;;18.1;61.18457;101264.2;;;;-80
2022/06/26 01:14:51;;;;;;;;;;;;;;;18.09;61.84961;101261.3;;;;-82
2022/06/26 01:19:47;;;;;;;;;;;;;;;18.08;62.6748;101262.7;;;;-82
2022/06/26 01:24:48;;;;;;;;;;;;;;;18.09;62.47266;101259.8;;;;-78
2022/06/26 01:27:16;;;;;;;9.4;6.1;;;;;;;;;;;;;-81
2022/06/26 01:29:47;;;;;;;;;;;;;;;18.08;62.2334;101256.5;;;;-80
2022/06/26 01:34:47;;;;;;;;;;;;;;;18.08;61.99609;101262.6;;;;-81
2022/06/26 01:39:50;;;;;;;;;;;;;;;18.07;62.10742;101266.3;;;;-80
2022/06/26 01:44:47;;;;;;;;;;;;;;;18.06;63.33984;101268.9;;;;-81
2022/06/26 01:49:47;;;;;;;;;;;;;;;18.06;64.06348;101271.4;;;;-80
2022/06/26 01:54:47;;;;;;;;;;;;;;;18.06;63.9834;101268.1;;;;-81
2022/06/26 01:57:17;;;;;;;12.2;7.7;;;;;;;;;;;;;-80
2022/06/26 01:59:47;;;;;;;;;;;;;;;18.03;63.77734;101261.6;;;;-80
2022/06/26 02:04:47;;;;;;;;;;;;;;;18.05;64.54883;101274.8;;;;-80
2022/06/26 02:14:47;;;;;;;;;;;;;;;17.99;64.44922;101286.9;;;;-80
2022/06/26 02:19:49;;;;;;;;;;;;;;;17.96;64.34375;101279.3;;;;-80
2022/06/26 02:24:47;;;;;;;;;;;;;;;17.92;64.92578;101276.2;;;;-81
2022/06/26 02:27:19;;;;;;;15.1;9.2;;;;;;;;;;;;;-81
2022/06/26 02:29:47;;;;;;;;;;;;;;;17.91;64.4375;101277.2;;;;-82
2022/06/26 02:34:56;;;;;;;;;;;;;;;17.89;64.90918;101285.9;;;;-80
2022/06/26 02:39:48;;;;;;;;;;;;;;;17.85;65.03906;101281;;;;-83
2022/06/26 02:44:47;;;;;;;;;;;;;;;17.81;65.1123;101286.2;;;;-81
2022/06/26 02:49:50;;;;;;;;;;;;;;;17.78;64.9502;101270.9;;;;-80
2022/06/26 02:54:49;;;;;;;;;;;;;;;17.75;64.87793;101271.1;;;;-79
2022/06/26 02:57:22;;;;;;;15.9;9.6;;;;;;;;;;;;;-82
2022/06/26 02:59:51;;;;;;;;;;;;;;;17.72;64.82715;101262.3;;;;-82
2022/06/26 03:04:48;;;;;;;;;;;;;;;17.67;64.65234;101259.3;;;;-80
2022/06/26 03:09:47;;;;;;;;;;;;;;;17.64;64.97461;101265.4;;;;-80
2022/06/26 03:14:47;;;;;;;;;;;;;;;17.59;64.86523;101269.1;;;;-81
2022/06/26 03:19:47;;;;;;;;;;;;;;;17.51;64.97754;101272.9;;;;-80
2022/06/26 03:24:47;;;;;;;;;;;;;;;17.43;65.10254;101280.1;;;;-82
2022/06/26 03:27:23;;;;;;;17.8;10.4;;;;;;;;;;;;;-81
2022/06/26 03:29:47;;;;;;;;;;;;;;;17.33;64.94141;101287.4;;;;-80
2022/06/26 03:34:50;;;;;;;;;;;;;;;17.27;65.16895;101302.9;;;;-81
2022/06/26 03:39:47;;;;;;;;;;;;;;;17.2;65.18066;101311.8;;;;-81
2022/06/26 03:44:47;;;;;;;;;;;;;;;17.09;65.94336;101312.1;;;;-81
2022/06/26 03:49:47;;;;;;;;;;;;;;;17.01;66.00977;101308;;;;-80
2022/06/26 03:54:47;;;;;;;;;;;;;;;16.94;66.13574;101311.8;;;;-80
2022/06/26 03:57:24;;;;;;;19;10.2;;;;;;;;;;;;;-81
2022/06/26 03:59:48;;;;;;;;;;;;;;;16.88;65.95703;101317.9;;;;-80
2022/06/26 04:04:57;;;;;;;;;;;;;;;16.81;65.51758;101330.7;;;;-81
2022/06/26 04:09:47;;;;;;;;;;;;;;;16.76;65.71387;101318.8;;;;-82
2022/06/26 04:14:49;;;;;;;;;;;;;;;16.71;65.79688;101321.6;;;;-82
2022/06/26 04:19:49;;;;;;;;;;;;;;;16.66;65.54102;101339.5;;;;-81
2022/06/26 04:24:49;;;;;;;;;;;;;;;16.6;65.64453;101340.1;;;;-80
2022/06/26 04:27:28;;;;;;;17.3;7.7;;;;;;;;;;;;;-82
2022/06/26 04:29:49;;;;;;;;;;;;;;;16.55;65.7168;101341.9;;;;-80
2022/06/26 04:34:59;;;;;;;;;;;;;;;16.49;65.51563;101345.4;;;;-81
2022/06/26 04:39:47;;;;;;;;;;;;;;;16.49;65.95508;101357.9;;;;-80
2022/06/26 04:44:47;;;;;;;;;;;;;;;16.48;65.85254;101357.5;;;;-81
2022/06/26 04:49:47;;;;;;;;;;;;;;;16.46;66.37891;101372.2;;;;-81
2022/06/26 04:54:48;;;;;;;;;;;;;;;16.48;66.87695;101372.6;;;;-81
2022/06/26 04:57:29;;;;;;;15.2;7.7;;;;;;;;;;;;;-82
2022/06/26 05:00:01;;;;;;;;;;;;;;;;;;;;;
2022/06/26 05:04:48;;;;;;;;;;;;;;;16.5;66.88086;101390.9;;;;-82
2022/06/26 05:09:47;;;;;;;;;;;;;;;16.51;66.82617;101388.4;;;;-80
2022/06/26 05:14:47;;;;;;;;;;;;;;;16.54;67.04395;101391.6;;;;-82
2022/06/26 05:19:49;;;;;;;;;;;;;;;16.57;67.10449;101403.9;;;;-81
2022/06/26 05:24:53;;;;;;;;;;;;;;;16.71;66.95801;101407;;;;-81
2022/06/26 05:27:31;;;;;;;12.3;6.5;;;;;;;;;;;;;-80
2022/06/26 05:29:56;;;;;;;;;;;;;;;17.12;66.68164;101415.1;;;;-81
2022/06/26 05:34:50;;;;;;;;;;;;;;;17.69;66.65332;101401.3;;;;-82
2022/06/26 05:39:49;;;;;;;;;;;;;;;18.35;65.29297;101404.5;;;;-81
2022/06/26 05:44:49;;;;;;;;;;;;;;;18.94;64.34961;101411.5;;;;-81
2022/06/26 05:49:47;;;;;;;;;;;;;;;19.4;63.12207;101415.4;;;;-81
2022/06/26 05:54:48;;;;;;;;;;;;;;;19.76;62.22949;101414.7;;;;-81
2022/06/26 05:57:32;;;;;;;10.4;5;;;;;;;;;;;;;-81
2022/06/26 05:59:49;;;;;;;;;;;;;;;20.17;61.51465;101416.8;;;;-81
2022/06/26 06:04:54;;;;;;;;;;;;;;;20.58;60.8418;101423.3;;;;-82
2022/06/26 06:09:52;;;;;;;;;;;;;;;20.98;59.82422;101437.1;;;;-81
2022/06/26 06:14:47;;;;;;;;;;;;;;;21.43;58.74414;101448.5;;;;-81
2022/06/26 06:19:47;;;;;;;;;;;;;;;21.78;57.85352;101453.2;;;;-82
2022/06/26 06:24:47;;;;;;;;;;;;;;;21.77;57.85156;101460.7;;;;-81
2022/06/26 06:27:37;;;;;;;7.4;4.4;;;;;;;;;;;;;-82
2022/06/26 06:29:47;;;;;;;;;;;;;;;21.71;57.98242;101472.1;;;;-82
2022/06/26 06:34:49;;;;;;;;;;;;;;;21.59;58.14746;101475.6;;;;-82
2022/06/26 06:39:57;;;;;;;;;;;;;;;21.59;58.08008;101479.6;;;;-81
2022/06/26 06:44:47;;;;;;;;;;;;;;;21.52;58.07129;101477.2;;;;-81
2022/06/26 06:49:47;;;;;;;;;;;;;;;21.5;58.25;101485.1;;;;-84
2022/06/26 06:54:47;;;;;;;;;;;;;;;21.62;58.2666;101497.3;;;;-82
2022/06/26 06:57:36;;;;;;;9.3;4.3;;;;;;;;;;;;;-82
2022/06/26 06:59:49;;;;;;;;;;;;;;;21.81;57.84668;101505.6;;;;-81
2022/06/26 07:04:47;;;;;;;;;;;;;;;21.99;57.34375;101519.9;;;;-81
2022/06/26 07:09:47;;;;;;;;;;;;;;;22.01;57.07129;101534.7;;;;-83
2022/06/26 07:14:53;;;;;;;;;;;;;;;22.09;56.95605;101539.6;;;;-82
2022/06/26 07:19:47;;;;;;;;;;;;;;;22.22;56.77637;101538.3;;;;-83
2022/06/26 07:24:52;;;;;;;;;;;;;;;22.42;56.28809;101546.7;;;;-84
2022/06/26 07:27:38;;;;;;;6.3;3.8;;;;;;;;;;;;;-82
2022/06/26 07:29:51;;;;;;;;;;;;;;;22.57;55.87109;101550.9;;;;-81
2022/06/26 07:34:47;;;;;;;;;;;;;;;22.75;55.40039;101562.4;;;;-82
2022/06/26 07:39:47;;;;;;;;;;;;;;;22.84;54.98828;101563.8;;;;-82
2022/06/26 07:44:48;;;;;;;;;;;;;;;22.93;54.49414;101567.2;;;;-82
2022/06/26 07:49:49;;;;;;;;;;;;;;;22.95;54.17578;101557.4;;;;-84
2022/06/26 07:54:47;;;;;;;;;;;;;;;22.96;54.18945;101556.6;;;;-83
2022/06/26 07:57:44;;;;;;;4.9;3;;;;;;;;;;;;;-83
2022/06/26 07:59:47;;;;;;;;;;;;;;;23.16;54.02832;101558;;;;-81
2022/06/26 08:04:49;;;;;;;;;;;;;;;23.39;53.27539;101565.5;;;;-83
2022/06/26 08:09:55;;;;;;;;;;;;;;;23.53;52.74121;101561;;;;-82
2022/06/26 08:14:48;;;;;;;;;;;;;;;23.62;52.52051;101572.1;;;;-83
2022/06/26 08:19:50;;;;;;;;;;;;;;;23.78;52.16016;101577;;;;-85
2022/06/26 08:24:52;;;;;;;;;;;;;;;23.97;51.81543;101583.2;;;;-85
2022/06/26 08:27:48;;;;;;;5.1;2.5;;;;;;;;;;;;;-85
2022/06/26 08:29:48;;;;;;;;;;;;;;;24.12;51.45117;101583.5;;;;-84
2022/06/26 08:34:49;;;;;;;;;;;;;;;24.2;50.89746;101591.4;;;;-84
2022/06/26 08:39:48;;;;;;;;;;;;;;;24.22;50.53027;101588.4;;;;-86
2022/06/26 08:44:48;;;;;;;;;;;;;;;24.26;50.19043;101592;;;;-84
2022/06/26 08:49:48;;;;;;;;;;;;;;;24.37;50.17969;101580.5;;;;-85
2022/06/26 08:54:49;;;;;;;;;;;;;;;24.49;49.57031;101577.9;;;;-85
2022/06/26 08:57:49;;;;;;;6.3;2.1;;;;;;;;;;;;;-82
2022/06/26 08:59:47;;;;;;;;;;;;;;;24.6;49.31836;101589.3;;;;-85
2022/06/26 09:04:47;;;;;;;;;;;;;;;24.74;49.16016;101593;;;;-79
2022/06/26 09:09:46;;;;;;;;;;;;;;;24.88;48.93262;101592;;;;-78
2022/06/26 09:14:47;;;;;;;;;;;;;;;24.96;48.17969;101600.3;;;;-78
2022/06/26 09:19:46;;;;;;;;;;;;;;;24.95;48.06445;101595.7;;;;-78
2022/06/26 09:24:56;;;;;;;;;;;;;;;24.97;48.08887;101589.7;;;;-78
2022/06/26 09:27:49;;;;;;;4.3;1.9;;;;;;;;;;;;;-78
2022/06/26 09:29:52;;;;;;;;;;;;;;;25.07;48.14648;101588.2;;;;-79
2022/06/26 09:34:51;;;;;;;;;;;;;;;25.18;47.9375;101591.4;;;;-77
2022/06/26 09:39:46;;;;;;;;;;;;;;;25.31;47.69727;101593.6;;;;-78
2022/06/26 09:44:50;;;;;;;;;;;;;;;25.63;47.5459;101599.4;;;;-78
2022/06/26 09:49:46;;;;;;;;;;;;;;;26.02;46.10547;101611.6;;;;-77
2022/06/26 09:54:47;;;;;;;;;;;;;;;26.27;45.7373;101609.3;;;;-78
2022/06/26 09:57:53;;;;;;;4.3;2;;;;;;;;;;;;;-79
2022/06/26 09:59:47;;;;;;;;;;;;;;;26.5;44.8916;101612.2;;;;-79
2022/06/26 10:09:47;;;;;;;;;;;;;;;26.81;44.95703;101610.6;;;;-79
2022/06/26 10:14:50;;;;;;;;;;;;;;;26.94;44.26172;101605.2;;;;-79
2022/06/26 10:19:49;;;;;;;;;;;;;;;27.13;44.38477;101612.2;;;;-78
2022/06/26 10:25:00;;;;;;;;;;;;;;;27.27;44.23633;101614.8;;;;-79
2022/06/26 10:27:57;;;;;;;4.7;2.7;;;;;;;;;;;;;-80
2022/06/26 10:29:46;;;;;;;;;;;;;;;27.44;43.7998;101609.5;;;;-79
2022/06/26 10:34:46;;;;;;;;;;;;;;;27.7;43.73242;101619.6;;;;-78
2022/06/26 10:39:53;;;;;;;;;;;;;;;27.94;42.83594;101610.2;;;;-79
2022/06/26 10:44:49;;;;;;;;;;;;;;;28.13;42.59766;101608;;;;-76
2022/06/26 10:49:53;;;;;;;;;;;;;;;28.26;41.77148;101606.3;;;;-79
2022/06/26 10:54:50;;;;;;;;;;;;;;;28.38;41.86328;101612;;;;-79
2022/06/26 10:58:00;;;;;;;5;2.5;;;;;;;;;;;;;-77
2022/06/26 10:59:48;;;;;;;;;;;;;;;28.49;41.94434;101619.9;;;;-78
2022/06/26 11:04:54;;;;;;;;;;;;;;;28.57;41.48438;101622.3;;;;-79
2022/06/26 11:09:47;;;;;;;;;;;;;;;28.59;41.53418;101626.8;;;;-79
2022/06/26 11:14:46;;;;;;;;;;;;;;;28.61;41.16113;101629.1;;;;-79
2022/06/26 11:24:55;;;;;;;;;;;;;;;28.53;40.76953;101623.7;;;;-78
2022/06/26 11:28:06;;;;;;;4.6;1.9;;;;;;;;;;;;;-79
2022/06/26 11:29:50;;;;;;;;;;;;;;;28.52;40.64063;101628.3;;;;-79
2022/06/26 11:34:54;;;;;;;;;;;;;;;28.46;40.8916;101620.8;;;;-77
2022/06/26 11:39:47;;;;;;;;;;;;;;;28.36;40.23047;101622.1;;;;-79
2022/06/26 11:44:53;;;;;;;;;;;;;;;28.2;40.51953;101624.4;;;;-79
2022/06/26 11:49:46;;;;;;;;;;;;;;;28.13;40.4541;101619.4;;;;-78
2022/06/26 11:54:47;;;;;;;;;;;;;;;28.07;40.70605;101615.9;;;;-79
2022/06/26 11:58:10;;;;;;;4.4;1.4;;;;;;;;;;;;;-77
2022/06/26 11:59:48;;;;;;;;;;;;;;;28.04;39.91113;101618.8;;;;-80
2022/06/26 12:04:56;;;;;;;;;;;;;;;27.94;40.01855;101617.2;;;;-79
2022/06/26 12:09:46;;;;;;;;;;;;;;;27.92;40.21484;101613.2;;;;-78
2022/06/26 12:14:52;;;;;;;;;;;;;;;27.89;40.13184;101613.4;;;;-75
2022/06/26 12:19:47;;;;;;;;;;;;;;;27.89;39.85059;101618.1;;;;-78
2022/06/26 12:24:55;;;;;;;;;;;;;;;27.88;40.43164;101614.6;;;;-77
2022/06/26 12:28:12;;;;;;;4.2;1.6;;;;;;;;;;;;;-77
2022/06/26 12:29:47;;;;;;;;;;;;;;;27.89;39.94434;101616.5;;;;-79
2022/06/26 12:34:47;;;;;;;;;;;;;;;27.91;39.64258;101624.2;;;;-75
2022/06/26 12:39:47;;;;;;;;;;;;;;;27.97;40.04492;101626.6;;;;-75
2022/06/26 12:49:57;;;;;;;;;;;;;;;27.77;38.9209;101628.6;;;;-86
2022/06/26 12:58:32;;;;;;;;;;;;;;;28.14;39.58105;101620.1;;;;-86
2022/06/26 12:59:01;;;;;;;4.8;1.2;;;;;;;;;;;;;-86
2022/06/26 13:04:03;;;;;;;;;;;;;;;28.78;38.89063;101633.4;;;;-87
2022/06/26 13:08:36;;;;;;;;;;;;;;;28.68;39.17383;101627.9;;;;-87
2022/06/26 13:18:26;;;;;;;;;;;;;;;29.06;38.70508;101619.7;;;;-86
2022/06/26 13:23:58;;;;;;;;;;;;;;;29.44;38.66699;101621.5;;;;-88
2022/06/26 13:28:43;;;;;;;2.2;1.1;;;;;;;;;;;;;-87
2022/06/26 13:28:58;;;;;;;;;;;;;;;29.8;38.68555;101606.2;;;;-87
2022/06/26 13:33:41;;;;;;;;;;;;;;;30.04;37.18359;101616.2;;;;-88
2022/06/26 13:43:23;;;;;;;;;;;;;;;30.11;36.56934;101621.5;;;;-79
2022/06/26 13:48:20;;;;;;;;;;;;;;;30.03;36.24512;101627.1;;;;-77
2022/06/26 13:53:20;;;;;;;;;;;;;;;30.08;35.50098;101622.3;;;;-75
2022/06/26 13:58:20;;;;;;;;;;;;;;;30.17;36.58496;101626.5;;;;-78
2022/06/26 13:58:30;;;;;;;2.9;1.2;;;;;;;;;;;;;-78
2022/06/26 14:03:20;;;;;;;;;;;;;;;30.42;35.97168;101628.1;;;;-76
2022/06/26 14:08:20;;;;;;;;;;;;;;;30.58;36.23145;101630.5;;;;-78
2022/06/26 14:13:21;;;;;;;;;;;;;;;30.72;36.04297;101625.4;;;;-80
2022/06/26 14:18:21;;;;;;;;;;;;;;;30.69;35.61914;101614.1;;;;-79
2022/06/26 14:28:21;;;;;;;;;;;;;;;30.47;36.1748;101623;;;;-79
2022/06/26 14:28:32;;;;;;;3.9;1.7;;;;;;;;;;;;;-79
2022/06/26 14:33:20;;;;;;;;;;;;;;;30.31;36.5498;101628.7;;;;-79
2022/06/26 14:38:22;;;;;;;;;;;;;;;30.14;36.23145;101628.5;;;;-79
2022/06/26 14:43:21;;;;;;;;;;;;;;;29.92;36.11914;101634.4;;;;-80
2022/06/26 14:48:20;;;;;;;;;;;;;;;29.68;36.49902;101629.2;;;;-80
2022/06/26 14:53:20;;;;;;;;;;;;;;;29.55;36.61719;101632.1;;;;-80
2022/06/26 14:58:21;;;;;;;;;;;;;;;29.43;36.40918;101627.7;;;;-81
2022/06/26 14:58:35;;;;;;;4.3;2;;;;;;;;;;;;;-78
2022/06/26 15:03:23;;;;;;;;;;;;;;;29.28;35.91699;101629.8;;;;-79
2022/06/26 15:08:20;;;;;;;;;;;;;;;29.14;36.77148;101634.7;;;;-78
2022/06/26 15:13:20;;;;;;;;;;;;;;;29.01;36.16504;101633.7;;;;-79
2022/06/26 15:18:21;;;;;;;;;;;;;;;28.81;36.42871;101626;;;;-79
2022/06/26 15:23:20;;;;;;;;;;;;;;;28.6;36.5752;101619.4;;;;-79
2022/06/26 15:28:20;;;;;;;;;;;;;;;28.39;36.71094;101614.2;;;;-79
2022/06/26 15:28:36;;;;;;;3.9;2.1;;;;;;;;;;;;;-76
2022/06/26 15:33:20;;;;;;;;;;;;;;;28.2;36.88086;101615.6;;;;-77
2022/06/26 15:38:20;;;;;;;;;;;;;;;27.96;36.79297;101611.4;;;;-80
2022/06/26 15:43:20;;;;;;;;;;;;;;;27.82;37.18848;101615.2;;;;-79
2022/06/26 15:48:20;;;;;;;;;;;;;;;27.68;37.23535;101605.1;;;;-79
2022/06/26 15:53:20;;;;;;;;;;;;;;;27.58;37.62305;101614.2;;;;-80
2022/06/26 15:58:21;;;;;;;;;;;;;;;27.45;37.71777;101608.5;;;;-80
2022/06/26 15:58:40;;;;;;;6.2;2.6;;;;;;;;;;;;;-81
2022/06/26 16:03:20;;;;;;;;;;;;;;;27.29;38.11133;101609.2;;;;-79
2022/06/26 16:08:20;;;;;;;;;;;;;;;27.2;38.37109;101607.1;;;;-80
2022/06/26 16:13:20;;;;;;;;;;;;;;;27;38.09863;101607.4;;;;-80
2022/06/26 16:18:20;;;;;;;;;;;;;;;26.88;38.54199;101603.1;;;;-79
2022/06/26 16:28:20;;;;;;;;;;;;;;;26.54;38.96582;101607.4;;;;-79
2022/06/26 16:28:44;;;;;;;3.9;2.5;;;;;;;;;;;;;-79
2022/06/26 16:33:20;;;;;;;;;;;;;;;26.43;39.17578;101602.4;;;;-79
2022/06/26 16:38:20;;;;;;;;;;;;;;;26.33;39.28418;101593;;;;-75
2022/06/26 16:43:20;;;;;;;;;;;;;;;26.29;39.51367;101593.2;;;;-75
2022/06/26 16:48:21;;;;;;;;;;;;;;;26.27;39.58105;101599.7;;;;-77
2022/06/26 16:53:20;;;;;;;;;;;;;;;26.18;39.47949;101604.8;;;;-77
2022/06/26 16:58:20;;;;;;;;;;;;;;;26.09;39.62305;101605.8;;;;-75
2022/06/26 16:58:48;;;;;;;5;2.4;;;;;;;;;;;;;-75
2022/06/26 17:03:20;;;;;;;;;;;;;;;25.97;39.7627;101603.7;;;;-77
2022/06/26 17:08:20;;;;;;;;;;;;;;;25.85;39.94922;101600.3;;;;-79
2022/06/26 17:13:21;;;;;;;;;;;;;;;25.73;40.20508;101591.2;;;;-80
2022/06/26 17:18:20;;;;;;;;;;;;;;;25.61;40.24121;101589.2;;;;-79
2022/06/26 17:23:21;;;;;;;;;;;;;;;25.5;40.17285;101586.8;;;;-78
2022/06/26 17:28:21;;;;;;;;;;;;;;;25.37;40.21973;101583.8;;;;-77
2022/06/26 17:28:52;;;;;;;3.3;2;;;;;;;;;;;;;-78
2022/06/26 17:33:20;;;;;;;;;;;;;;;25.29;40.40918;101580.7;;;;-78
2022/06/26 17:38:21;;;;;;;;;;;;;;;25.23;40.64746;101581.4;;;;-80
2022/06/26 17:43:20;;;;;;;;;;;;;;;25.16;41.20703;101579.2;;;;-78
2022/06/26 17:48:20;;;;;;;;;;;;;;;25.11;41.53809;101578.8;;;;-78
2022/06/26 17:53:20;;;;;;;;;;;;;;;25.05;42.04199;101587.5;;;;-81
2022/06/26 17:58:21;;;;;;;;;;;;;;;24.95;42.24121;101584.9;;;;-78
2022/06/26 17:58:56;;;;;;;7;2.3;;;;;;;;;;;;;-78
2022/06/26 18:03:20;;;;;;;;;;;;;;;24.86;42.68359;101579.2;;;;-79
2022/06/26 18:08:20;;;;;;;;;;;;;;;24.73;42.99414;101581.5;;;;-79
2022/06/26 18:13:20;;;;;;;;;;;;;;;24.6;42.85547;101569.7;;;;-78
2022/06/26 18:18:20;;;;;;;;;;;;;;;24.48;42.78516;101570.8;;;;-79
2022/06/26 18:23:20;;;;;;;;;;;;;;;24.36;42.85449;101583.1;;;;-79
2022/06/26 18:28:20;;;;;;;;;;;;;;;24.22;43.47656;101586.2;;;;-79
2022/06/26 18:28:59;;;;;;;4.8;2.3;;;;;;;;;;;;;-78
2022/06/26 18:33:20;;;;;;;;;;;;;;;24.13;42.87988;101587.7;;;;-79
2022/06/26 18:38:20;;;;;;;;;;;;;;;24.01;42.70703;101593.3;;;;-78
2022/06/26 18:43:20;;;;;;;;;;;;;;;23.89;43.0752;101597.3;;;;-78
2022/06/26 18:48:20;;;;;;;;;;;;;;;23.76;42.9248;101588.6;;;;-77
2022/06/26 18:53:20;;;;;;;;;;;;;;;23.61;43.34863;101577.4;;;;-77
2022/06/26 18:58:21;;;;;;;;;;;;;;;23.47;43.71484;101575.1;;;;-78
2022/06/26 18:59:03;;;;;;;4.5;2.3;;;;;;;;;;;;;-77
2022/06/26 19:03:20;;;;;;;;;;;;;;;23.33;43.79395;101597.5;;;;-79
2022/06/26 19:08:20;;;;;;;;;;;;;;;23.21;44.18457;101627.5;;;;-79
2022/06/26 19:18:20;;;;;;;;;;;;;;;22.9;45.28125;101611.4;;;;-79
2022/06/26 19:23:21;;;;;;;;;;;;;;;22.74;45.55176;101609.1;;;;-78
2022/06/26 19:28:20;;;;;;;;;;;;;;;22.57;45.70703;101614.9;;;;-79
2022/06/26 19:29:05;;;;;;;3.6;2.2;;;;;;;;;;;;;-78
2022/06/26 19:33:21;;;;;;;;;;;;;;;22.41;45.9541;101618.2;;;;-76
2022/06/26 19:38:20;;;;;;;;;;;;;;;22.21;46.19824;101630.5;;;;-78
2022/06/26 19:43:20;;;;;;;;;;;;;;;22.02;46.44238;101630.6;;;;-79
2022/06/26 19:48:20;;;;;;;;;;;;;;;21.86;47.06836;101638.4;;;;-79
2022/06/26 19:53:20;;;;;;;;;;;;;;;21.69;47.10742;101627.9;;;;-77
2022/06/26 19:58:21;;;;;;;;;;;;;;;21.53;47.21777;101625.5;;;;-77
2022/06/26 19:59:08;;;;;;;3.6;2.1;;;;;;;;;;;;;-78
2022/06/26 20:08:21;;;;;;;;;;;;;;;21.23;47.91797;101626.8;;;;-77
2022/06/26 20:13:20;;;;;;;;;;;;;;;21.09;48.12012;101635.3;;;;-77
2022/06/26 20:18:20;;;;;;;;;;;;;;;20.94;48.84668;101645.9;;;;-79
2022/06/26 20:23:20;;;;;;;;;;;;;;;20.82;49.18848;101662.7;;;;-77
2022/06/26 20:28:20;;;;;;;;;;;;;;;20.69;49.04883;101668.5;;;;-78
2022/06/26 20:29:11;;;;;;;5;2.1;;;;;;;;;;;;;-78
2022/06/26 20:33:20;;;;;;;;;;;;;;;20.57;48.99023;101669.6;;;;-78
2022/06/26 20:38:20;;;;;;;;;;;;;;;20.44;49.11328;101675.8;;;;-78
2022/06/26 20:43:20;;;;;;;;;;;;;;;20.32;49.37305;101676.3;;;;-78
2022/06/26 20:48:20;;;;;;;;;;;;;;;20.19;49.68848;101670.5;;;;-76
2022/06/26 20:53:20;;;;;;;;;;;;;;;20.09;49.67773;101666.3;;;;-77
2022/06/26 20:58:20;;;;;;;;;;;;;;;19.97;49.81348;101660;;;;-78
2022/06/26 20:59:13;;;;;;;4.8;2.2;;;;;;;;;;;;;-79
2022/06/26 21:03:23;;;;;;;;;;;;;;;19.86;49.92578;101664.3;;;;-84
2022/06/26 21:08:30;;;;;;;;;;;;;;;19.75;49.8916;101651.5;;;;-82
2022/06/26 21:13:21;;;;;;;;;;;;;;;19.67;50.05371;101648.9;;;;-84
2022/06/26 21:18:22;;;;;;;;;;;;;;;19.56;50.09863;101653.5;;;;-84
2022/06/26 21:23:25;;;;;;;;;;;;;;;19.48;50.32813;101643.7;;;;-82
2022/06/26 21:28:22;;;;;;;;;;;;;;;19.39;50.40918;101652.8;;;;-85
2022/06/26 21:29:17;;;;;;;3.6;2.1;;;;;;;;;;;;;-83
2022/06/26 21:33:21;;;;;;;;;;;;;;;19.34;50.62012;101659.4;;;;-82
2022/06/26 21:38:21;;;;;;;;;;;;;;;19.29;50.66016;101654.7;;;;-83
2022/06/26 21:43:21;;;;;;;;;;;;;;;19.22;50.67578;101668.5;;;;-83
2022/06/26 21:48:21;;;;;;;;;;;;;;;19.21;51.03809;101683.5;;;;-82
2022/06/26 21:53:23;;;;;;;;;;;;;;;19.19;50.94336;101687.3;;;;-85
2022/06/26 21:58:20;;;;;;;;;;;;;;;19.17;50.85059;101677.1;;;;-83
2022/06/26 21:59:18;;;;;;;5.7;2.6;;;;;;;;;;;;;-84
2022/06/26 22:03:20;;;;;;;;;;;;;;;19.15;51.00879;101659.5;;;;-83
2022/06/26 22:08:22;;;;;;;;;;;;;;;19.13;51.0166;101659.1;;;;-83
2022/06/26 22:13:21;;;;;;;;;;;;;;;19.1;51.11621;101659.3;;;;-83
2022/06/26 22:18:20;;;;;;;;;;;;;;;19.05;51.15625;101647.5;;;;-84
2022/06/26 22:23:20;;;;;;;;;;;;;;;19.01;51.29883;101635.9;;;;-84
2022/06/26 22:28:22;;;;;;;;;;;;;;;19.01;51.45703;101640.4;;;;-82
2022/06/26 22:29:21;;;;;;;5.8;2.8;;;;;;;;;;;;;-84
2022/06/26 22:33:24;;;;;;;;;;;;;;;18.97;51.31738;101627.5;;;;-82
2022/06/26 22:38:26;;;;;;;;;;;;;;;18.94;51.51953;101624.5;;;;-83
2022/06/26 22:43:20;;;;;;;;;;;;;;;18.92;51.44922;101626.7;;;;-83
2022/06/26 22:48:21;;;;;;;;;;;;;;;18.89;51.58008;101623.1;;;;-82
2022/06/26 22:53:20;;;;;;;;;;;;;;;18.87;51.53418;101621.5;;;;-83
2022/06/26 22:58:21;;;;;;;;;;;;;;;18.85;51.66797;101600.6;;;;-82
2022/06/26 22:59:23;;;;;;;5.6;2.6;;;;;;;;;;;;;-83
2022/06/26 23:03:20;;;;;;;;;;;;;;;18.8;51.72949;101602.1;;;;-85
2022/06/26 23:08:20;;;;;;;;;;;;;;;18.79;51.77441;101619.8;;;;-84
2022/06/26 23:13:26;;;;;;;;;;;;;;;18.77;51.88574;101630.5;;;;-84
2022/06/26 23:18:21;;;;;;;;;;;;;;;18.75;51.83691;101621.3;;;;-86
2022/06/26 23:23:20;;;;;;;;;;;;;;;18.71;51.88965;101615;;;;-83
2022/06/26 23:28:21;;;;;;;;;;;;;;;18.69;51.88867;101615;;;;-83
2022/06/26 23:29:25;;;;;;;4.8;2.7;;;;;;;;;;;;;-83
2022/06/26 23:33:20;;;;;;;;;;;;;;;18.66;51.90625;101611;;;;-83
2022/06/26 23:38:21;;;;;;;;;;;;;;;18.64;52.04004;101617.9;;;;-83
2022/06/26 23:43:23;;;;;;;;;;;;;;;18.62;52.01563;101643.9;;;;-82
2022/06/26 23:48:21;;;;;;;;;;;;;;;18.62;51.99316;101638.9;;;;-81
2022/06/26 23:53:20;;;;;;;;;;;;;;;18.58;51.9209;101628.9;;;;-82
2022/06/26 23:58:21;;;;;;;;;;;;;;;18.57;51.98633;101625.5;;;;-82
2022/06/26 23:59:27;;;;;;;4.2;2.6;;;;;;;;;;;;;-82
